Aviation Digital Data Service (ADDS)

Output produced by METARs form (0736 UTC 24 May 2018)
found at http://www.aviationweather.gov/adds/metars/
 
TAF WPDL 240716Z 2408/2420 03008KT 9999 SCT050 
     FM241200 15006KT 9999 FEW050